sensor_id;sensor_type;location;lat;lon;timestamp;pressure;altitude;pressure_sealevel;temperature;humidity
25430;BME280;13360;48.152;-1.788;2023-03-14T00:02:09;100995.81;;;13.29;100.00
25430;BME280;13360;48.152;-1.788;2023-03-14T00:04:35;100999.72;;;13.28;100.00
25430;BME280;13360;48.152;-1.788;2023-03-14T00:07:01;100993.84;;;13.29;100.00
25430;BME280;13360;48.152;-1.788;2023-03-14T00:09:26;100993.13;;;13.24;100.00
25430;BME280;13360;48.152;-1.788;2023-03-14T00:11:55;100993.97;;;13.24;100.00
25430;BME280;13360;48.152;-1.788;2023-03-14T00:14:21;100998.50;;;13.20;100.00
25430;BME280;13360;48.152;-1.788;2023-03-14T00:16:46;101000.75;;;13.18;100.00
25430;BME280;13360;48.152;-1.788;2023-03-14T00:19:12;101010.09;;;13.22;100.00
25430;BME280;13360;48.152;-1.788;2023-03-14T00:21:37;101025.97;;;13.17;100.00
25430;BME280;13360;48.152;-1.788;2023-03-14T00:24:02;101020.41;;;13.03;100.00
25430;BME280;13360;48.152;-1.788;2023-03-14T00:26:28;101059.44;;;13.06;100.00
25430;BME280;13360;48.152;-1.788;2023-03-14T00:28:54;101087.31;;;13.15;100.00
25430;BME280;13360;48.152;-1.788;2023-03-14T00:31:19;101090.25;;;13.05;100.00
25430;BME280;13360;48.152;-1.788;2023-03-14T00:33:45;101118.59;;;13.02;100.00
25430;BME280;13360;48.152;-1.788;2023-03-14T00:36:17;101149.63;;;13.04;100.00
25430;BME280;13360;48.152;-1.788;2023-03-14T00:38:44;101180.63;;;13.06;100.00
25430;BME280;13360;48.152;-1.788;2023-03-14T00:41:12;101206.91;;;12.95;100.00
25430;BME280;13360;48.152;-1.788;2023-03-14T00:43:38;101231.75;;;13.00;100.00
25430;BME280;13360;48.152;-1.788;2023-03-14T00:46:04;101272.84;;;12.98;100.00
25430;BME280;13360;48.152;-1.788;2023-03-14T00:48:29;101306.72;;;12.95;100.00
25430;BME280;13360;48.152;-1.788;2023-03-14T00:50:55;101360.84;;;12.87;100.00
25430;BME280;13360;48.152;-1.788;2023-03-14T00:53:20;101399.00;;;12.76;100.00
25430;BME280;13360;48.152;-1.788;2023-03-14T00:55:46;101429.41;;;12.81;100.00
25430;BME280;13360;48.152;-1.788;2023-03-14T00:58:13;101402.94;;;12.70;100.00
25430;BME280;13360;48.152;-1.788;2023-03-14T01:00:39;101376.81;;;12.76;100.00
25430;BME280;13360;48.152;-1.788;2023-03-14T01:03:05;101287.31;;;12.52;100.00
25430;BME280;13360;48.152;-1.788;2023-03-14T01:05:31;101243.00;;;12.52;100.00
25430;BME280;13360;48.152;-1.788;2023-03-14T01:07:56;101160.22;;;12.45;100.00
25430;BME280;13360;48.152;-1.788;2023-03-14T01:10:22;101136.09;;;12.65;100.00
25430;BME280;13360;48.152;-1.788;2023-03-14T01:12:48;101094.63;;;12.60;100.00
25430;BME280;13360;48.152;-1.788;2023-03-14T01:15:14;101016.47;;;12.44;100.00
25430;BME280;13360;48.152;-1.788;2023-03-14T01:17:39;100995.44;;;12.43;100.00
25430;BME280;13360;48.152;-1.788;2023-03-14T01:20:06;100948.91;;;12.26;100.00
25430;BME280;13360;48.152;-1.788;2023-03-14T01:22:34;100925.88;;;12.44;100.00
25430;BME280;13360;48.152;-1.788;2023-03-14T01:24:59;100893.25;;;12.41;100.00
25430;BME280;13360;48.152;-1.788;2023-03-14T01:27:25;100850.78;;;12.46;100.00
25430;BME280;13360;48.152;-1.788;2023-03-14T01:29:50;100821.88;;;12.52;100.00
25430;BME280;13360;48.152;-1.788;2023-03-14T01:32:16;100793.09;;;12.48;100.00
25430;BME280;13360;48.152;-1.788;2023-03-14T01:34:41;100773.13;;;12.51;100.00
25430;BME280;13360;48.152;-1.788;2023-03-14T01:37:06;100750.53;;;12.44;100.00
25430;BME280;13360;48.152;-1.788;2023-03-14T01:39:33;100741.22;;;12.40;100.00
25430;BME280;13360;48.152;-1.788;2023-03-14T01:42:00;100723.97;;;12.43;100.00
25430;BME280;13360;48.152;-1.788;2023-03-14T01:44:25;100715.34;;;12.44;100.00
25430;BME280;13360;48.152;-1.788;2023-03-14T01:46:51;100704.88;;;12.41;100.00
25430;BME280;13360;48.152;-1.788;2023-03-14T01:52:04;100769.31;;;12.47;100.00
25430;BME280;13360;48.152;-1.788;2023-03-14T01:54:37;100815.81;;;12.50;100.00
25430;BME280;13360;48.152;-1.788;2023-03-14T01:59:58;100841.56;;;12.50;100.00
25430;BME280;13360;48.152;-1.788;2023-03-14T02:02:26;100834.06;;;12.37;100.00
25430;BME280;13360;48.152;-1.788;2023-03-14T02:04:54;100849.50;;;12.25;100.00
25430;BME280;13360;48.152;-1.788;2023-03-14T02:07:23;100886.47;;;12.34;100.00
25430;BME280;13360;48.152;-1.788;2023-03-14T02:09:52;100895.28;;;12.36;100.00
25430;BME280;13360;48.152;-1.788;2023-03-14T02:12:20;100888.00;;;12.40;100.00
25430;BME280;13360;48.152;-1.788;2023-03-14T02:14:46;100851.34;;;12.15;100.00
25430;BME280;13360;48.152;-1.788;2023-03-14T02:17:14;100845.59;;;12.12;100.00
25430;BME280;13360;48.152;-1.788;2023-03-14T02:22:33;100790.47;;;11.83;100.00
25430;BME280;13360;48.152;-1.788;2023-03-14T02:27:30;100797.22;;;12.09;100.00
25430;BME280;13360;48.152;-1.788;2023-03-14T02:30:02;100758.63;;;11.99;100.00
25430;BME280;13360;48.152;-1.788;2023-03-14T02:32:31;100776.47;;;11.93;100.00
25430;BME280;13360;48.152;-1.788;2023-03-14T02:35:00;100768.84;;;11.85;100.00
25430;BME280;13360;48.152;-1.788;2023-03-14T02:37:35;100790.16;;;11.84;100.00
25430;BME280;13360;48.152;-1.788;2023-03-14T02:40:02;100841.06;;;12.02;100.00
25430;BME280;13360;48.152;-1.788;2023-03-14T02:42:29;100828.97;;;11.98;100.00
25430;BME280;13360;48.152;-1.788;2023-03-14T02:47:51;100794.44;;;11.77;100.00
25430;BME280;13360;48.152;-1.788;2023-03-14T02:50:21;100790.31;;;11.74;100.00
25430;BME280;13360;48.152;-1.788;2023-03-14T02:52:47;100795.59;;;11.57;100.00
25430;BME280;13360;48.152;-1.788;2023-03-14T02:55:13;100779.03;;;11.71;100.00
25430;BME280;13360;48.152;-1.788;2023-03-14T02:57:38;100784.56;;;11.71;100.00
25430;BME280;13360;48.152;-1.788;2023-03-14T03:00:04;100760.34;;;11.63;100.00
25430;BME280;13360;48.152;-1.788;2023-03-14T03:02:30;100751.38;;;11.71;100.00
25430;BME280;13360;48.152;-1.788;2023-03-14T03:04:55;100736.94;;;11.74;100.00
25430;BME280;13360;48.152;-1.788;2023-03-14T03:07:21;100709.88;;;11.71;100.00
25430;BME280;13360;48.152;-1.788;2023-03-14T03:09:46;100701.66;;;11.66;100.00
25430;BME280;13360;48.152;-1.788;2023-03-14T03:12:12;100702.59;;;11.75;100.00
25430;BME280;13360;48.152;-1.788;2023-03-14T03:14:37;100696.97;;;11.66;100.00
25430;BME280;13360;48.152;-1.788;2023-03-14T03:17:04;100713.66;;;11.75;100.00
25430;BME280;13360;48.152;-1.788;2023-03-14T03:19:29;100714.09;;;11.82;100.00
25430;BME280;13360;48.152;-1.788;2023-03-14T03:21:55;100701.13;;;11.64;100.00
25430;BME280;13360;48.152;-1.788;2023-03-14T03:24:20;100740.66;;;11.83;100.00
25430;BME280;13360;48.152;-1.788;2023-03-14T03:26:45;100726.16;;;11.72;100.00
25430;BME280;13360;48.152;-1.788;2023-03-14T03:29:11;100722.44;;;11.63;100.00
25430;BME280;13360;48.152;-1.788;2023-03-14T03:31:37;100730.28;;;11.75;100.00
25430;BME280;13360;48.152;-1.788;2023-03-14T03:34:03;100739.97;;;11.91;100.00
25430;BME280;13360;48.152;-1.788;2023-03-14T03:36:28;100733.41;;;11.87;100.00
25430;BME280;13360;48.152;-1.788;2023-03-14T03:38:53;100728.44;;;11.70;100.00
25430;BME280;13360;48.152;-1.788;2023-03-14T03:41:19;100744.09;;;11.75;100.00
25430;BME280;13360;48.152;-1.788;2023-03-14T03:43:44;100731.91;;;11.76;100.00
25430;BME280;13360;48.152;-1.788;2023-03-14T03:46:10;100705.88;;;11.77;100.00
25430;BME280;13360;48.152;-1.788;2023-03-14T03:48:35;100701.41;;;11.81;100.00
25430;BME280;13360;48.152;-1.788;2023-03-14T03:51:01;100703.88;;;11.82;100.00
25430;BME280;13360;48.152;-1.788;2023-03-14T03:53:26;100696.03;;;11.71;100.00
25430;BME280;13360;48.152;-1.788;2023-03-14T03:55:52;100702.25;;;11.63;100.00
25430;BME280;13360;48.152;-1.788;2023-03-14T03:58:17;100720.19;;;11.65;100.00
25430;BME280;13360;48.152;-1.788;2023-03-14T04:00:43;100756.91;;;11.71;100.00
25430;BME280;13360;48.152;-1.788;2023-03-14T04:03:08;100788.81;;;11.82;100.00
25430;BME280;13360;48.152;-1.788;2023-03-14T04:05:34;100743.41;;;11.83;100.00
25430;BME280;13360;48.152;-1.788;2023-03-14T04:08:00;100733.56;;;11.77;100.00
25430;BME280;13360;48.152;-1.788;2023-03-14T04:10:25;100714.91;;;11.69;100.00
25430;BME280;13360;48.152;-1.788;2023-03-14T04:12:50;100704.22;;;11.62;100.00
25430;BME280;13360;48.152;-1.788;2023-03-14T04:15:16;100685.56;;;11.54;100.00
25430;BME280;13360;48.152;-1.788;2023-03-14T04:17:41;100678.91;;;11.55;100.00
25430;BME280;13360;48.152;-1.788;2023-03-14T04:20:07;100669.22;;;11.39;100.00
25430;BME280;13360;48.152;-1.788;2023-03-14T04:22:36;100651.94;;;11.47;100.00
25430;BME280;13360;48.152;-1.788;2023-03-14T04:25:01;100617.25;;;11.22;100.00
25430;BME280;13360;48.152;-1.788;2023-03-14T04:27:28;100605.63;;;11.25;100.00
25430;BME280;13360;48.152;-1.788;2023-03-14T04:29:54;100614.84;;;11.34;100.00
25430;BME280;13360;48.152;-1.788;2023-03-14T04:32:19;100619.97;;;11.27;100.00
25430;BME280;13360;48.152;-1.788;2023-03-14T04:34:45;100633.94;;;11.17;100.00
25430;BME280;13360;48.152;-1.788;2023-03-14T04:37:10;100666.56;;;11.34;100.00
25430;BME280;13360;48.152;-1.788;2023-03-14T04:39:36;100714.19;;;11.30;100.00
25430;BME280;13360;48.152;-1.788;2023-03-14T04:42:01;100656.69;;;10.95;100.00
25430;BME280;13360;48.152;-1.788;2023-03-14T04:44:26;100671.44;;;10.90;100.00
25430;BME280;13360;48.152;-1.788;2023-03-14T04:46:52;100698.66;;;11.16;100.00
25430;BME280;13360;48.152;-1.788;2023-03-14T04:49:17;100660.66;;;11.08;100.00
25430;BME280;13360;48.152;-1.788;2023-03-14T04:51:42;100647.19;;;11.01;100.00
25430;BME280;13360;48.152;-1.788;2023-03-14T04:54:08;100649.91;;;11.20;100.00
25430;BME280;13360;48.152;-1.788;2023-03-14T04:56:33;100621.75;;;11.04;100.00
25430;BME280;13360;48.152;-1.788;2023-03-14T04:58:59;100594.09;;;11.04;100.00
25430;BME280;13360;48.152;-1.788;2023-03-14T05:01:24;100593.84;;;10.87;100.00
25430;BME280;13360;48.152;-1.788;2023-03-14T05:03:49;100567.16;;;10.63;100.00
25430;BME280;13360;48.152;-1.788;2023-03-14T05:06:15;100605.22;;;10.85;100.00
25430;BME280;13360;48.152;-1.788;2023-03-14T05:08:40;100592.94;;;10.91;100.00
25430;BME280;13360;48.152;-1.788;2023-03-14T05:11:06;100575.84;;;10.89;100.00
25430;BME280;13360;48.152;-1.788;2023-03-14T05:13:31;100569.22;;;10.72;100.00
25430;BME280;13360;48.152;-1.788;2023-03-14T05:16:05;100572.63;;;10.82;100.00
25430;BME280;13360;48.152;-1.788;2023-03-14T05:18:30;100552.66;;;10.72;100.00
25430;BME280;13360;48.152;-1.788;2023-03-14T05:20:56;100551.53;;;10.73;100.00
25430;BME280;13360;48.152;-1.788;2023-03-14T05:23:21;100541.22;;;10.78;100.00
25430;BME280;13360;48.152;-1.788;2023-03-14T05:25:46;100532.00;;;10.69;100.00
25430;BME280;13360;48.152;-1.788;2023-03-14T05:28:11;100526.06;;;10.76;100.00
25430;BME280;13360;48.152;-1.788;2023-03-14T05:30:37;100532.56;;;10.85;100.00
25430;BME280;13360;48.152;-1.788;2023-03-14T05:33:02;100512.16;;;10.81;100.00
25430;BME280;13360;48.152;-1.788;2023-03-14T05:35:28;100510.31;;;10.76;100.00
25430;BME280;13360;48.152;-1.788;2023-03-14T05:37:53;100513.16;;;10.71;100.00
25430;BME280;13360;48.152;-1.788;2023-03-14T05:40:18;100510.09;;;10.73;100.00
25430;BME280;13360;48.152;-1.788;2023-03-14T05:42:44;100507.94;;;10.69;100.00
25430;BME280;13360;48.152;-1.788;2023-03-14T05:45:09;100506.00;;;10.70;100.00
25430;BME280;13360;48.152;-1.788;2023-03-14T05:47:35;100512.97;;;10.67;100.00
25430;BME280;13360;48.152;-1.788;2023-03-14T05:50:00;100503.09;;;10.61;100.00
25430;BME280;13360;48.152;-1.788;2023-03-14T05:52:25;100518.81;;;10.47;100.00
25430;BME280;13360;48.152;-1.788;2023-03-14T05:54:51;100518.00;;;10.47;100.00
25430;BME280;13360;48.152;-1.788;2023-03-14T05:57:16;100509.66;;;10.33;100.00
25430;BME280;13360;48.152;-1.788;2023-03-14T05:59:41;100526.94;;;10.38;100.00
25430;BME280;13360;48.152;-1.788;2023-03-14T06:02:07;100524.78;;;10.35;100.00
25430;BME280;13360;48.152;-1.788;2023-03-14T06:04:32;100526.28;;;10.47;100.00
25430;BME280;13360;48.152;-1.788;2023-03-14T06:06:58;100532.75;;;10.56;100.00
25430;BME280;13360;48.152;-1.788;2023-03-14T06:09:23;100543.16;;;10.26;100.00
25430;BME280;13360;48.152;-1.788;2023-03-14T06:11:49;100546.75;;;10.27;100.00
25430;BME280;13360;48.152;-1.788;2023-03-14T06:14:14;100572.19;;;10.43;100.00
25430;BME280;13360;48.152;-1.788;2023-03-14T06:16:39;100556.44;;;10.24;100.00
25430;BME280;13360;48.152;-1.788;2023-03-14T06:19:05;100565.38;;;10.35;100.00
25430;BME280;13360;48.152;-1.788;2023-03-14T06:21:30;100625.31;;;10.53;100.00
25430;BME280;13360;48.152;-1.788;2023-03-14T06:23:55;100611.19;;;10.55;100.00
25430;BME280;13360;48.152;-1.788;2023-03-14T06:26:21;100582.84;;;10.49;100.00
25430;BME280;13360;48.152;-1.788;2023-03-14T06:28:48;100565.03;;;10.42;100.00
25430;BME280;13360;48.152;-1.788;2023-03-14T06:31:13;100571.72;;;10.35;100.00
25430;BME280;13360;48.152;-1.788;2023-03-14T06:33:39;100589.31;;;10.39;100.00
25430;BME280;13360;48.152;-1.788;2023-03-14T06:36:04;100593.22;;;10.38;100.00
25430;BME280;13360;48.152;-1.788;2023-03-14T06:38:29;100617.41;;;10.47;100.00
25430;BME280;13360;48.152;-1.788;2023-03-14T06:40:55;100604.72;;;10.46;100.00
25430;BME280;13360;48.152;-1.788;2023-03-14T06:43:20;100617.31;;;10.52;100.00
25430;BME280;13360;48.152;-1.788;2023-03-14T06:45:46;100609.44;;;10.45;100.00
25430;BME280;13360;48.152;-1.788;2023-03-14T06:48:11;100631.28;;;10.42;100.00
25430;BME280;13360;48.152;-1.788;2023-03-14T06:50:36;100653.81;;;10.49;100.00
25430;BME280;13360;48.152;-1.788;2023-03-14T06:53:02;100647.19;;;10.50;100.00
25430;BME280;13360;48.152;-1.788;2023-03-14T06:55:27;100650.53;;;10.47;100.00
25430;BME280;13360;48.152;-1.788;2023-03-14T06:57:52;100673.59;;;10.56;100.00
25430;BME280;13360;48.152;-1.788;2023-03-14T16:39:15;101159.59;;;12.86;100.00
25430;BME280;13360;48.152;-1.788;2023-03-14T16:41:40;101176.03;;;12.82;100.00
25430;BME280;13360;48.152;-1.788;2023-03-14T16:44:06;101184.44;;;12.77;100.00
25430;BME280;13360;48.152;-1.788;2023-03-14T16:46:31;101167.94;;;12.67;100.00
25430;BME280;13360;48.152;-1.788;2023-03-14T16:48:57;101200.00;;;12.73;100.00
25430;BME280;13360;48.152;-1.788;2023-03-14T16:51:23;101188.69;;;12.70;100.00
25430;BME280;13360;48.152;-1.788;2023-03-14T16:53:49;101189.81;;;12.69;100.00
25430;BME280;13360;48.152;-1.788;2023-03-14T16:56:15;101180.44;;;12.65;100.00
25430;BME280;13360;48.152;-1.788;2023-03-14T16:58:40;101188.47;;;12.66;100.00
25430;BME280;13360;48.152;-1.788;2023-03-14T17:01:07;101209.28;;;12.64;100.00
25430;BME280;13360;48.152;-1.788;2023-03-14T17:03:43;101196.63;;;12.58;100.00
25430;BME280;13360;48.152;-1.788;2023-03-14T17:06:14;101199.72;;;12.56;100.00
25430;BME280;13360;48.152;-1.788;2023-03-14T17:08:40;101215.22;;;12.57;100.00
25430;BME280;13360;48.152;-1.788;2023-03-14T17:11:06;101214.22;;;12.48;100.00
25430;BME280;13360;48.152;-1.788;2023-03-14T17:13:32;101216.22;;;12.42;100.00
25430;BME280;13360;48.152;-1.788;2023-03-14T17:15:59;101239.22;;;12.43;100.00
25430;BME280;13360;48.152;-1.788;2023-03-14T17:18:26;101234.88;;;12.37;100.00
25430;BME280;13360;48.152;-1.788;2023-03-14T17:20:52;101258.44;;;12.34;100.00
25430;BME280;13360;48.152;-1.788;2023-03-14T17:23:19;101300.75;;;12.40;100.00
25430;BME280;13360;48.152;-1.788;2023-03-14T17:25:46;101293.56;;;12.39;100.00
25430;BME280;13360;48.152;-1.788;2023-03-14T17:28:11;101300.53;;;12.36;100.00
25430;BME280;13360;48.152;-1.788;2023-03-14T17:30:37;101306.38;;;12.35;100.00
25430;BME280;13360;48.152;-1.788;2023-03-14T17:33:02;101313.34;;;12.27;100.00
25430;BME280;13360;48.152;-1.788;2023-03-14T17:35:28;101313.44;;;12.22;100.00
25430;BME280;13360;48.152;-1.788;2023-03-14T17:37:53;101324.50;;;12.22;100.00
25430;BME280;13360;48.152;-1.788;2023-03-14T17:40:19;101325.38;;;12.17;100.00
25430;BME280;13360;48.152;-1.788;2023-03-14T17:42:44;101337.41;;;12.08;100.00
25430;BME280;13360;48.152;-1.788;2023-03-14T17:45:10;101348.75;;;12.06;100.00
25430;BME280;13360;48.152;-1.788;2023-03-14T17:47:35;101345.16;;;12.06;100.00
25430;BME280;13360;48.152;-1.788;2023-03-14T17:50:00;101355.69;;;12.09;100.00
25430;BME280;13360;48.152;-1.788;2023-03-14T17:52:30;101359.28;;;12.04;100.00
25430;BME280;13360;48.152;-1.788;2023-03-14T17:54:56;101364.28;;;12.02;100.00
25430;BME280;13360;48.152;-1.788;2023-03-14T17:57:21;101367.66;;;11.99;100.00
25430;BME280;13360;48.152;-1.788;2023-03-14T17:59:46;101363.53;;;11.97;100.00
25430;BME280;13360;48.152;-1.788;2023-03-14T18:02:12;101359.75;;;11.87;100.00
25430;BME280;13360;48.152;-1.788;2023-03-14T18:04:38;101366.94;;;11.83;100.00
25430;BME280;13360;48.152;-1.788;2023-03-14T18:07:03;101361.19;;;11.80;100.00
25430;BME280;13360;48.152;-1.788;2023-03-14T18:09:29;101359.53;;;11.74;100.00
25430;BME280;13360;48.152;-1.788;2023-03-14T18:11:54;101365.06;;;11.74;100.00
25430;BME280;13360;48.152;-1.788;2023-03-14T18:14:20;101378.38;;;11.72;100.00
25430;BME280;13360;48.152;-1.788;2023-03-14T18:16:45;101388.69;;;11.66;100.00
25430;BME280;13360;48.152;-1.788;2023-03-14T18:19:14;101409.13;;;11.65;100.00
25430;BME280;13360;48.152;-1.788;2023-03-14T18:21:40;101415.25;;;11.62;100.00
25430;BME280;13360;48.152;-1.788;2023-03-14T18:24:06;101411.94;;;11.60;100.00
25430;BME280;13360;48.152;-1.788;2023-03-14T18:26:31;101416.94;;;11.58;100.00
25430;BME280;13360;48.152;-1.788;2023-03-14T18:28:57;101423.88;;;11.55;100.00
25430;BME280;13360;48.152;-1.788;2023-03-14T18:31:22;101427.75;;;11.54;100.00
25430;BME280;13360;48.152;-1.788;2023-03-14T18:33:50;101438.56;;;11.51;100.00
25430;BME280;13360;48.152;-1.788;2023-03-14T18:36:17;101440.25;;;11.47;100.00
25430;BME280;13360;48.152;-1.788;2023-03-14T18:38:43;101447.72;;;11.46;100.00
25430;BME280;13360;48.152;-1.788;2023-03-14T18:41:13;101454.38;;;11.45;100.00
25430;BME280;13360;48.152;-1.788;2023-03-14T18:43:39;101452.16;;;11.42;100.00
25430;BME280;13360;48.152;-1.788;2023-03-14T18:46:05;101463.78;;;11.39;100.00
25430;BME280;13360;48.152;-1.788;2023-03-14T18:48:30;101468.25;;;11.35;100.00
25430;BME280;13360;48.152;-1.788;2023-03-14T18:50:57;101462.47;;;11.32;100.00
25430;BME280;13360;48.152;-1.788;2023-03-14T18:53:23;101462.22;;;11.28;100.00
25430;BME280;13360;48.152;-1.788;2023-03-14T18:55:56;101479.38;;;11.25;100.00
25430;BME280;13360;48.152;-1.788;2023-03-14T18:58:21;101476.59;;;11.20;100.00
25430;BME280;13360;48.152;-1.788;2023-03-14T19:00:54;101478.31;;;11.11;100.00
25430;BME280;13360;48.152;-1.788;2023-03-14T19:03:20;101484.97;;;11.05;100.00
25430;BME280;13360;48.152;-1.788;2023-03-14T19:05:46;101487.75;;;10.99;100.00
25430;BME280;13360;48.152;-1.788;2023-03-14T19:08:12;101493.25;;;10.99;100.00
25430;BME280;13360;48.152;-1.788;2023-03-14T19:10:39;101487.75;;;10.99;100.00
25430;BME280;13360;48.152;-1.788;2023-03-14T19:13:04;101485.53;;;10.96;100.00
25430;BME280;13360;48.152;-1.788;2023-03-14T19:15:30;101489.13;;;10.97;100.00
25430;BME280;13360;48.152;-1.788;2023-03-14T19:17:55;101490.53;;;10.94;100.00
25430;BME280;13360;48.152;-1.788;2023-03-14T19:20:20;101485.28;;;10.93;100.00
25430;BME280;13360;48.152;-1.788;2023-03-14T19:22:46;101494.97;;;10.90;100.00
25430;BME280;13360;48.152;-1.788;2023-03-14T19:25:12;101501.31;;;10.91;100.00
25430;BME280;13360;48.152;-1.788;2023-03-14T19:27:38;101498.56;;;10.86;100.00
25430;BME280;13360;48.152;-1.788;2023-03-14T19:30:04;101505.19;;;10.80;100.00
25430;BME280;13360;48.152;-1.788;2023-03-14T19:32:29;101496.38;;;10.78;100.00
25430;BME280;13360;48.152;-1.788;2023-03-14T19:34:55;101503.81;;;10.77;100.00
25430;BME280;13360;48.152;-1.788;2023-03-14T19:37:20;101492.78;;;10.72;100.00
25430;BME280;13360;48.152;-1.788;2023-03-14T19:39:46;101508.28;;;10.68;100.00
25430;BME280;13360;48.152;-1.788;2023-03-14T19:42:12;101498.91;;;10.64;100.00
25430;BME280;13360;48.152;-1.788;2023-03-14T19:44:37;101512.16;;;10.57;100.00
25430;BME280;13360;48.152;-1.788;2023-03-14T19:47:03;101510.50;;;10.56;100.00
25430;BME280;13360;48.152;-1.788;2023-03-14T19:49:30;101514.38;;;10.55;100.00
25430;BME280;13360;48.152;-1.788;2023-03-14T19:51:56;101514.91;;;10.52;100.00
25430;BME280;13360;48.152;-1.788;2023-03-14T19:54:22;101514.38;;;10.55;100.00
25430;BME280;13360;48.152;-1.788;2023-03-14T19:56:48;101518.50;;;10.57;100.00
25430;BME280;13360;48.152;-1.788;2023-03-14T19:59:14;101508.84;;;10.55;100.00
25430;BME280;13360;48.152;-1.788;2023-03-14T20:01:40;101513.00;;;10.42;100.00
25430;BME280;13360;48.152;-1.788;2023-03-14T20:04:06;101527.63;;;10.32;100.00
25430;BME280;13360;48.152;-1.788;2023-03-14T20:06:31;101540.34;;;10.28;100.00
25430;BME280;13360;48.152;-1.788;2023-03-14T20:08:58;101536.75;;;10.28;100.00
25430;BME280;13360;48.152;-1.788;2023-03-14T20:11:24;101535.09;;;10.27;100.00
25430;BME280;13360;48.152;-1.788;2023-03-14T20:13:49;101545.03;;;10.23;100.00
25430;BME280;13360;48.152;-1.788;2023-03-14T20:16:15;101552.75;;;10.21;100.00
25430;BME280;13360;48.152;-1.788;2023-03-14T20:18:40;101552.44;;;10.17;100.00
25430;BME280;13360;48.152;-1.788;2023-03-14T20:21:07;101548.56;;;10.13;100.00
25430;BME280;13360;48.152;-1.788;2023-03-14T20:23:33;101559.06;;;10.11;100.00
25430;BME280;13360;48.152;-1.788;2023-03-14T20:25:59;101548.56;;;10.08;100.00
25430;BME280;13360;48.152;-1.788;2023-03-14T20:28:26;101565.13;;;10.03;100.00
25430;BME280;13360;48.152;-1.788;2023-03-14T20:30:52;101570.59;;;9.98;100.00
25430;BME280;13360;48.152;-1.788;2023-03-14T20:33:17;101582.75;;;9.97;100.00
25430;BME280;13360;48.152;-1.788;2023-03-14T20:35:45;101580.00;;;9.97;100.00
25430;BME280;13360;48.152;-1.788;2023-03-14T20:38:10;101589.94;;;9.98;100.00
25430;BME280;13360;48.152;-1.788;2023-03-14T20:40:36;101581.91;;;9.91;100.00
25430;BME280;13360;48.152;-1.788;2023-03-14T20:43:01;101581.34;;;9.84;100.00
25430;BME280;13360;48.152;-1.788;2023-03-14T20:45:27;101597.09;;;9.84;100.00
25430;BME280;13360;48.152;-1.788;2023-03-14T20:47:52;101594.59;;;9.82;100.00
25430;BME280;13360;48.152;-1.788;2023-03-14T20:50:17;101602.59;;;9.84;100.00
25430;BME280;13360;48.152;-1.788;2023-03-14T20:52:43;101606.19;;;9.84;100.00
25430;BME280;13360;48.152;-1.788;2023-03-14T20:55:09;101606.19;;;9.79;100.00
25430;BME280;13360;48.152;-1.788;2023-03-14T20:57:35;101608.63;;;9.75;100.00
25430;BME280;13360;48.152;-1.788;2023-03-14T21:00:00;101611.91;;;9.72;100.00
25430;BME280;13360;48.152;-1.788;2023-03-14T21:02:26;101602.81;;;9.72;100.00
25430;BME280;13360;48.152;-1.788;2023-03-14T21:04:51;101589.56;;;9.69;100.00
25430;BME280;13360;48.152;-1.788;2023-03-14T21:07:17;101579.34;;;9.64;100.00
25430;BME280;13360;48.152;-1.788;2023-03-14T21:09:44;101571.31;;;9.58;100.00
25430;BME280;13360;48.152;-1.788;2023-03-14T21:12:09;101580.41;;;9.53;100.00
25430;BME280;13360;48.152;-1.788;2023-03-14T21:14:34;101587.56;;;9.49;100.00
25430;BME280;13360;48.152;-1.788;2023-03-14T21:17:00;101591.13;;;9.50;100.00
25430;BME280;13360;48.152;-1.788;2023-03-14T21:19:26;101590.84;;;9.46;100.00
25430;BME280;13360;48.152;-1.788;2023-03-14T21:22:02;101600.22;;;9.45;100.00
25430;BME280;13360;48.152;-1.788;2023-03-14T21:24:28;101581.72;;;9.40;100.00
25430;BME280;13360;48.152;-1.788;2023-03-14T21:26:54;101578.66;;;9.37;100.00
25430;BME280;13360;48.152;-1.788;2023-03-14T21:29:20;101579.47;;;9.32;100.00
25430;BME280;13360;48.152;-1.788;2023-03-14T21:31:47;101575.31;;;9.30;100.00
25430;BME280;13360;48.152;-1.788;2023-03-14T21:34:13;101569.25;;;9.28;100.00
25430;BME280;13360;48.152;-1.788;2023-03-14T21:36:38;101563.72;;;9.23;100.00
25430;BME280;13360;48.152;-1.788;2023-03-14T21:39:04;101571.44;;;9.21;100.00
25430;BME280;13360;48.152;-1.788;2023-03-14T21:41:29;101572.53;;;9.20;100.00
25430;BME280;13360;48.152;-1.788;2023-03-14T21:43:54;101567.56;;;9.16;100.00
25430;BME280;13360;48.152;-1.788;2023-03-14T21:46:20;101559.22;;;9.11;100.00
25430;BME280;13360;48.152;-1.788;2023-03-14T21:48:45;101563.91;;;9.06;100.00
25430;BME280;13360;48.152;-1.788;2023-03-14T21:51:11;101580.16;;;9.07;100.00
25430;BME280;13360;48.152;-1.788;2023-03-14T21:53:38;101592.28;;;9.06;100.00
25430;BME280;13360;48.152;-1.788;2023-03-14T21:56:03;101580.16;;;9.07;100.00
25430;BME280;13360;48.152;-1.788;2023-03-14T21:58:29;101570.25;;;9.06;100.00
25430;BME280;13360;48.152;-1.788;2023-03-14T22:01:00;101557.53;;;9.00;100.00
25430;BME280;13360;48.152;-1.788;2023-03-14T22:03:26;101552.22;;;8.94;100.00
25430;BME280;13360;48.152;-1.788;2023-03-14T22:05:51;101562.41;;;8.88;100.00
25430;BME280;13360;48.152;-1.788;2023-03-14T22:08:17;101566.25;;;8.87;100.00
25430;BME280;13360;48.152;-1.788;2023-03-14T22:10:52;101577.28;;;8.87;100.00
25430;BME280;13360;48.152;-1.788;2023-03-14T22:13:18;101589.38;;;8.86;100.00
25430;BME280;13360;48.152;-1.788;2023-03-14T22:15:45;101597.66;;;8.86;100.00
25430;BME280;13360;48.152;-1.788;2023-03-14T22:18:12;101605.34;;;8.84;100.00